sensor_id;sensor_type;location;lat;lon;timestamp;temperature;humidity
51327;DHT22;37412;52.836;6.362;2023-05-15T00:00:50;11.80;99.90
51327;DHT22;37412;52.836;6.362;2023-05-15T00:03:36;11.80;99.90
51327;DHT22;37412;52.836;6.362;2023-05-15T00:06:23;11.80;99.90
51327;DHT22;37412;52.836;6.362;2023-05-15T00:09:09;11.80;99.90
51327;DHT22;37412;52.836;6.362;2023-05-15T00:11:55;11.80;99.90
51327;DHT22;37412;52.836;6.362;2023-05-15T00:14:42;11.80;99.90
51327;DHT22;37412;52.836;6.362;2023-05-15T00:17:28;11.70;99.90
51327;DHT22;37412;52.836;6.362;2023-05-15T00:20:16;11.70;99.90
51327;DHT22;37412;52.836;6.362;2023-05-15T00:23:01;11.60;99.90
51327;DHT22;37412;52.836;6.362;2023-05-15T00:25:47;11.60;99.90
51327;DHT22;37412;52.836;6.362;2023-05-15T00:28:33;11.60;99.90
51327;DHT22;37412;52.836;6.362;2023-05-15T00:31:19;11.50;99.90
51327;DHT22;37412;52.836;6.362;2023-05-15T00:34:05;11.50;99.90
51327;DHT22;37412;52.836;6.362;2023-05-15T00:36:54;11.40;99.90
51327;DHT22;37412;52.836;6.362;2023-05-15T00:39:44;11.40;99.90
51327;DHT22;37412;52.836;6.362;2023-05-15T00:42:31;11.40;99.90
51327;DHT22;37412;52.836;6.362;2023-05-15T00:45:17;11.40;99.90
51327;DHT22;37412;52.836;6.362;2023-05-15T00:48:05;11.30;99.90
51327;DHT22;37412;52.836;6.362;2023-05-15T00:50:52;11.30;99.90
51327;DHT22;37412;52.836;6.362;2023-05-15T00:53:38;11.30;99.90
51327;DHT22;37412;52.836;6.362;2023-05-15T00:56:26;11.30;99.90
51327;DHT22;37412;52.836;6.362;2023-05-15T00:59:12;11.20;99.90
51327;DHT22;37412;52.836;6.362;2023-05-15T01:02:02;11.20;99.90
51327;DHT22;37412;52.836;6.362;2023-05-15T01:04:48;11.20;99.90
51327;DHT22;37412;52.836;6.362;2023-05-15T01:07:55;11.10;99.90
51327;DHT22;37412;52.836;6.362;2023-05-15T01:10:44;11.10;99.90
51327;DHT22;37412;52.836;6.362;2023-05-15T01:13:32;11.10;99.90
51327;DHT22;37412;52.836;6.362;2023-05-15T01:16:20;11.80;99.90
51327;DHT22;37412;52.836;6.362;2023-05-15T01:19:06;11.00;99.90
51327;DHT22;37412;52.836;6.362;2023-05-15T01:25:28;11.00;99.90
51327;DHT22;37412;52.836;6.362;2023-05-15T01:28:31;10.90;99.90
51327;DHT22;37412;52.836;6.362;2023-05-15T01:31:21;11.00;99.90
51327;DHT22;37412;52.836;6.362;2023-05-15T01:34:10;11.00;99.90
51327;DHT22;37412;52.836;6.362;2023-05-15T01:37:02;11.00;99.90
51327;DHT22;37412;52.836;6.362;2023-05-15T01:39:52;11.10;99.90
51327;DHT22;37412;52.836;6.362;2023-05-15T01:42:46;11.00;99.90
51327;DHT22;37412;52.836;6.362;2023-05-15T01:45:36;11.00;99.90
51327;DHT22;37412;52.836;6.362;2023-05-15T01:48:25;11.00;99.90
51327;DHT22;37412;52.836;6.362;2023-05-15T01:51:14;10.90;99.90
51327;DHT22;37412;52.836;6.362;2023-05-15T01:54:02;10.90;99.90
51327;DHT22;37412;52.836;6.362;2023-05-15T01:56:50;10.90;99.90
51327;DHT22;37412;52.836;6.362;2023-05-15T01:59:37;11.40;99.90
51327;DHT22;37412;52.836;6.362;2023-05-15T02:02:25;10.90;99.90
51327;DHT22;37412;52.836;6.362;2023-05-15T02:05:13;10.80;99.90
51327;DHT22;37412;52.836;6.362;2023-05-15T02:08:03;11.20;99.90
51327;DHT22;37412;52.836;6.362;2023-05-15T02:10:50;10.80;99.90
51327;DHT22;37412;52.836;6.362;2023-05-15T02:13:36;10.70;99.90
51327;DHT22;37412;52.836;6.362;2023-05-15T02:16:23;10.70;99.90
51327;DHT22;37412;52.836;6.362;2023-05-15T02:19:12;10.80;99.90
51327;DHT22;37412;52.836;6.362;2023-05-15T02:22:05;11.30;99.90
51327;DHT22;37412;52.836;6.362;2023-05-15T02:24:51;12.00;99.90
51327;DHT22;37412;52.836;6.362;2023-05-15T02:28:07;12.10;99.90
51327;DHT22;37412;52.836;6.362;2023-05-15T02:31:06;10.80;99.90
51327;DHT22;37412;52.836;6.362;2023-05-15T02:34:07;10.80;99.90
51327;DHT22;37412;52.836;6.362;2023-05-15T02:36:56;10.70;99.90
51327;DHT22;37412;52.836;6.362;2023-05-15T02:39:44;10.70;99.90
51327;DHT22;37412;52.836;6.362;2023-05-15T02:42:32;10.70;99.90
51327;DHT22;37412;52.836;6.362;2023-05-15T02:45:18;11.50;99.90
51327;DHT22;37412;52.836;6.362;2023-05-15T02:48:05;10.60;99.90
51327;DHT22;37412;52.836;6.362;2023-05-15T02:50:52;11.30;99.90
51327;DHT22;37412;52.836;6.362;2023-05-15T02:53:41;10.60;99.90
51327;DHT22;37412;52.836;6.362;2023-05-15T02:56:27;10.70;99.90
51327;DHT22;37412;52.836;6.362;2023-05-15T02:59:13;10.60;99.90
51327;DHT22;37412;52.836;6.362;2023-05-15T03:02:04;10.70;99.90
51327;DHT22;37412;52.836;6.362;2023-05-15T03:04:50;10.60;99.90
51327;DHT22;37412;52.836;6.362;2023-05-15T03:07:36;10.60;99.90
51327;DHT22;37412;52.836;6.362;2023-05-15T03:10:34;10.60;99.90
51327;DHT22;37412;52.836;6.362;2023-05-15T03:13:20;10.50;99.90
51327;DHT22;37412;52.836;6.362;2023-05-15T03:16:06;10.50;99.90
51327;DHT22;37412;52.836;6.362;2023-05-15T03:18:56;10.50;99.90
51327;DHT22;37412;52.836;6.362;2023-05-15T03:21:42;10.50;99.90
51327;DHT22;37412;52.836;6.362;2023-05-15T03:24:30;10.50;99.90
51327;DHT22;37412;52.836;6.362;2023-05-15T03:27:17;10.40;99.90
51327;DHT22;37412;52.836;6.362;2023-05-15T03:30:03;10.40;99.90
51327;DHT22;37412;52.836;6.362;2023-05-15T03:32:53;10.40;99.90
51327;DHT22;37412;52.836;6.362;2023-05-15T03:35:40;10.30;99.90
51327;DHT22;37412;52.836;6.362;2023-05-15T03:38:26;10.30;99.90
51327;DHT22;37412;52.836;6.362;2023-05-15T03:41:12;10.30;99.90
51327;DHT22;37412;52.836;6.362;2023-05-15T03:43:58;10.80;99.90
51327;DHT22;37412;52.836;6.362;2023-05-15T03:46:44;10.90;99.90
51327;DHT22;37412;52.836;6.362;2023-05-15T03:49:30;10.30;99.90
51327;DHT22;37412;52.836;6.362;2023-05-15T03:52:18;10.30;99.90
51327;DHT22;37412;52.836;6.362;2023-05-15T03:55:05;10.30;99.90
51327;DHT22;37412;52.836;6.362;2023-05-15T03:57:51;10.20;99.90
51327;DHT22;37412;52.836;6.362;2023-05-15T04:00:40;10.20;99.90
51327;DHT22;37412;52.836;6.362;2023-05-15T04:03:29;10.20;99.90
51327;DHT22;37412;52.836;6.362;2023-05-15T04:06:15;10.30;99.90
51327;DHT22;37412;52.836;6.362;2023-05-15T04:09:01;10.30;99.90
51327;DHT22;37412;52.836;6.362;2023-05-15T04:11:47;10.30;99.90
51327;DHT22;37412;52.836;6.362;2023-05-15T04:14:33;10.60;99.90
51327;DHT22;37412;52.836;6.362;2023-05-15T04:17:22;10.30;99.90
51327;DHT22;37412;52.836;6.362;2023-05-15T04:20:12;10.30;99.90
51327;DHT22;37412;52.836;6.362;2023-05-15T04:23:01;10.30;99.90
51327;DHT22;37412;52.836;6.362;2023-05-15T04:25:50;10.20;99.90
51327;DHT22;37412;52.836;6.362;2023-05-15T04:28:38;10.20;99.90
51327;DHT22;37412;52.836;6.362;2023-05-15T04:31:24;9.40;99.90
51327;DHT22;37412;52.836;6.362;2023-05-15T04:34:10;10.10;99.90
51327;DHT22;37412;52.836;6.362;2023-05-15T04:36:56;10.10;99.90
51327;DHT22;37412;52.836;6.362;2023-05-15T04:39:42;10.20;99.90
51327;DHT22;37412;52.836;6.362;2023-05-15T04:42:28;10.20;99.90
51327;DHT22;37412;52.836;6.362;2023-05-15T04:45:14;10.20;99.90
51327;DHT22;37412;52.836;6.362;2023-05-15T04:48:00;10.20;99.90
51327;DHT22;37412;52.836;6.362;2023-05-15T04:50:46;10.20;99.90
51327;DHT22;37412;52.836;6.362;2023-05-15T04:53:32;10.30;99.90
51327;DHT22;37412;52.836;6.362;2023-05-15T04:56:18;10.30;99.90
51327;DHT22;37412;52.836;6.362;2023-05-15T04:59:07;10.30;99.90
51327;DHT22;37412;52.836;6.362;2023-05-15T05:01:54;10.30;99.90
51327;DHT22;37412;52.836;6.362;2023-05-15T05:04:42;10.30;99.90
51327;DHT22;37412;52.836;6.362;2023-05-15T05:07:28;10.30;99.90
51327;DHT22;37412;52.836;6.362;2023-05-15T05:10:14;10.40;99.90
51327;DHT22;37412;52.836;6.362;2023-05-15T05:13:02;10.40;99.90
51327;DHT22;37412;52.836;6.362;2023-05-15T05:15:48;10.40;99.90
51327;DHT22;37412;52.836;6.362;2023-05-15T05:18:35;10.40;99.90
51327;DHT22;37412;52.836;6.362;2023-05-15T05:21:22;10.50;99.90
51327;DHT22;37412;52.836;6.362;2023-05-15T05:24:08;10.40;99.90
51327;DHT22;37412;52.836;6.362;2023-05-15T05:26:54;10.50;99.90
51327;DHT22;37412;52.836;6.362;2023-05-15T05:29:46;10.50;99.90
51327;DHT22;37412;52.836;6.362;2023-05-15T05:32:33;10.40;99.90
51327;DHT22;37412;52.836;6.362;2023-05-15T05:35:19;10.50;99.90
51327;DHT22;37412;52.836;6.362;2023-05-15T05:38:05;10.50;99.90
51327;DHT22;37412;52.836;6.362;2023-05-15T05:40:51;10.60;99.90
51327;DHT22;37412;52.836;6.362;2023-05-15T05:43:40;10.60;99.90
51327;DHT22;37412;52.836;6.362;2023-05-15T05:46:26;10.70;99.90
51327;DHT22;37412;52.836;6.362;2023-05-15T05:49:12;10.80;99.90
51327;DHT22;37412;52.836;6.362;2023-05-15T05:52:06;10.90;99.90
51327;DHT22;37412;52.836;6.362;2023-05-15T05:54:52;11.00;99.90
51327;DHT22;37412;52.836;6.362;2023-05-15T05:57:38;11.00;99.90
51327;DHT22;37412;52.836;6.362;2023-05-15T06:00:24;11.00;99.90
51327;DHT22;37412;52.836;6.362;2023-05-15T06:03:11;11.00;99.90
51327;DHT22;37412;52.836;6.362;2023-05-15T06:05:57;11.60;99.90
51327;DHT22;37412;52.836;6.362;2023-05-15T06:08:42;11.00;99.90
51327;DHT22;37412;52.836;6.362;2023-05-15T06:11:29;11.00;99.90
51327;DHT22;37412;52.836;6.362;2023-05-15T06:14:14;11.10;99.90
51327;DHT22;37412;52.836;6.362;2023-05-15T06:17:00;11.20;99.90
51327;DHT22;37412;52.836;6.362;2023-05-15T06:19:49;11.20;99.90
51327;DHT22;37412;52.836;6.362;2023-05-15T06:22:37;11.30;99.90
51327;DHT22;37412;52.836;6.362;2023-05-15T06:25:24;11.30;99.90
51327;DHT22;37412;52.836;6.362;2023-05-15T06:28:10;11.40;99.90
51327;DHT22;37412;52.836;6.362;2023-05-15T06:30:56;11.40;99.90
51327;DHT22;37412;52.836;6.362;2023-05-15T06:33:42;11.50;99.90
51327;DHT22;37412;52.836;6.362;2023-05-15T06:36:28;11.60;99.90
51327;DHT22;37412;52.836;6.362;2023-05-15T06:39:14;11.70;99.90
51327;DHT22;37412;52.836;6.362;2023-05-15T06:42:00;11.90;99.90
51327;DHT22;37412;52.836;6.362;2023-05-15T06:44:46;12.00;99.90
51327;DHT22;37412;52.836;6.362;2023-05-15T06:47:34;12.00;99.90
51327;DHT22;37412;52.836;6.362;2023-05-15T06:50:20;12.30;99.90
51327;DHT22;37412;52.836;6.362;2023-05-15T06:53:06;12.50;99.90
51327;DHT22;37412;52.836;6.362;2023-05-15T06:55:52;12.70;99.90
51327;DHT22;37412;52.836;6.362;2023-05-15T06:58:42;12.90;99.90
51327;DHT22;37412;52.836;6.362;2023-05-15T07:01:29;13.00;99.90
51327;DHT22;37412;52.836;6.362;2023-05-15T07:04:15;13.30;99.90
51327;DHT22;37412;52.836;6.362;2023-05-15T07:07:01;13.60;99.90
51327;DHT22;37412;52.836;6.362;2023-05-15T07:09:47;13.70;99.90
51327;DHT22;37412;52.836;6.362;2023-05-15T07:12:35;14.00;99.90
51327;DHT22;37412;52.836;6.362;2023-05-15T07:15:22;14.20;99.90
51327;DHT22;37412;52.836;6.362;2023-05-15T07:18:08;14.30;99.90
51327;DHT22;37412;52.836;6.362;2023-05-15T07:20:54;14.50;99.90
51327;DHT22;37412;52.836;6.362;2023-05-15T07:23:40;14.70;99.90
51327;DHT22;37412;52.836;6.362;2023-05-15T07:26:26;15.00;99.90
51327;DHT22;37412;52.836;6.362;2023-05-15T07:29:11;15.40;99.90
51327;DHT22;37412;52.836;6.362;2023-05-15T07:31:57;15.60;99.90
51327;DHT22;37412;52.836;6.362;2023-05-15T07:34:43;15.80;99.90
51327;DHT22;37412;52.836;6.362;2023-05-15T07:37:29;16.00;99.90
51327;DHT22;37412;52.836;6.362;2023-05-15T07:40:15;16.20;99.90
51327;DHT22;37412;52.836;6.362;2023-05-15T07:43:01;16.40;99.90
51327;DHT22;37412;52.836;6.362;2023-05-15T07:45:49;16.60;99.90
51327;DHT22;37412;52.836;6.362;2023-05-15T07:48:36;16.80;99.90
51327;DHT22;37412;52.836;6.362;2023-05-15T07:51:22;17.00;99.90
51327;DHT22;37412;52.836;6.362;2023-05-15T07:54:11;17.30;99.90
51327;DHT22;37412;52.836;6.362;2023-05-15T07:56:57;17.60;99.90
51327;DHT22;37412;52.836;6.362;2023-05-15T07:59:44;17.90;99.90
51327;DHT22;37412;52.836;6.362;2023-05-15T08:02:30;18.10;99.90
51327;DHT22;37412;52.836;6.362;2023-05-15T08:05:16;18.40;99.90
51327;DHT22;37412;52.836;6.362;2023-05-15T08:08:03;18.60;99.90
51327;DHT22;37412;52.836;6.362;2023-05-15T08:10:49;18.80;99.90
51327;DHT22;37412;52.836;6.362;2023-05-15T08:13:35;19.10;99.90
51327;DHT22;37412;52.836;6.362;2023-05-15T08:16:20;19.20;99.90
51327;DHT22;37412;52.836;6.362;2023-05-15T08:19:06;19.30;99.90
51327;DHT22;37412;52.836;6.362;2023-05-15T08:21:54;19.40;99.90
51327;DHT22;37412;52.836;6.362;2023-05-15T08:24:41;19.50;99.90
51327;DHT22;37412;52.836;6.362;2023-05-15T08:27:27;19.80;99.90
51327;DHT22;37412;52.836;6.362;2023-05-15T08:30:13;19.90;99.90
51327;DHT22;37412;52.836;6.362;2023-05-15T08:33:00;20.20;99.90
51327;DHT22;37412;52.836;6.362;2023-05-15T08:35:46;20.30;99.90
51327;DHT22;37412;52.836;6.362;2023-05-15T08:38:41;20.30;99.90
51327;DHT22;37412;52.836;6.362;2023-05-15T08:41:31;20.30;99.90
51327;DHT22;37412;52.836;6.362;2023-05-15T08:44:18;20.30;99.90
51327;DHT22;37412;52.836;6.362;2023-05-15T08:47:05;20.40;99.90
51327;DHT22;37412;52.836;6.362;2023-05-15T08:50:13;20.60;99.90
51327;DHT22;37412;52.836;6.362;2023-05-15T08:53:00;20.70;99.90
51327;DHT22;37412;52.836;6.362;2023-05-15T08:55:46;20.90;99.90
51327;DHT22;37412;52.836;6.362;2023-05-15T08:58:32;21.10;99.90
51327;DHT22;37412;52.836;6.362;2023-05-15T09:01:19;21.20;99.90
51327;DHT22;37412;52.836;6.362;2023-05-15T09:04:04;21.40;99.90
51327;DHT22;37412;52.836;6.362;2023-05-15T09:06:51;21.70;99.90
51327;DHT22;37412;52.836;6.362;2023-05-15T09:09:38;21.90;99.90
51327;DHT22;37412;52.836;6.362;2023-05-15T09:12:25;21.90;99.90
51327;DHT22;37412;52.836;6.362;2023-05-15T09:15:14;21.90;99.90
51327;DHT22;37412;52.836;6.362;2023-05-15T09:18:07;21.80;99.90
51327;DHT22;37412;52.836;6.362;2023-05-15T09:20:53;21.80;99.90
51327;DHT22;37412;52.836;6.362;2023-05-15T09:23:39;21.90;99.90
51327;DHT22;37412;52.836;6.362;2023-05-15T09:26:25;21.80;99.90
51327;DHT22;37412;52.836;6.362;2023-05-15T09:29:13;21.70;99.90
51327;DHT22;37412;52.836;6.362;2023-05-15T09:32:06;21.80;99.90
51327;DHT22;37412;52.836;6.362;2023-05-15T09:34:52;22.00;99.90
51327;DHT22;37412;52.836;6.362;2023-05-15T09:37:38;22.20;99.90
51327;DHT22;37412;52.836;6.362;2023-05-15T09:40:28;22.10;99.90
51327;DHT22;37412;52.836;6.362;2023-05-15T09:43:15;22.20;99.90
51327;DHT22;37412;52.836;6.362;2023-05-15T09:46:01;22.10;99.90
51327;DHT22;37412;52.836;6.362;2023-05-15T09:48:47;22.00;99.90
51327;DHT22;37412;52.836;6.362;2023-05-15T09:51:34;22.00;99.90
51327;DHT22;37412;52.836;6.362;2023-05-15T09:54:22;21.90;99.90
51327;DHT22;37412;52.836;6.362;2023-05-15T09:57:12;22.00;99.90
51327;DHT22;37412;52.836;6.362;2023-05-15T10:00:01;22.00;99.90
51327;DHT22;37412;52.836;6.362;2023-05-15T10:02:57;22.00;99.90
51327;DHT22;37412;52.836;6.362;2023-05-15T10:05:43;22.00;99.90
51327;DHT22;37412;52.836;6.362;2023-05-15T10:08:29;21.80;99.90
51327;DHT22;37412;52.836;6.362;2023-05-15T10:11:18;21.60;99.90
51327;DHT22;37412;52.836;6.362;2023-05-15T10:14:06;21.50;99.90
51327;DHT22;37412;52.836;6.362;2023-05-15T10:16:54;21.40;99.90
51327;DHT22;37412;52.836;6.362;2023-05-15T10:19:41;21.20;99.90
51327;DHT22;37412;52.836;6.362;2023-05-15T10:22:33;21.00;99.90
51327;DHT22;37412;52.836;6.362;2023-05-15T10:25:40;21.00;99.90
51327;DHT22;37412;52.836;6.362;2023-05-15T10:28:27;21.00;99.90
51327;DHT22;37412;52.836;6.362;2023-05-15T10:31:17;20.70;99.90
51327;DHT22;37412;52.836;6.362;2023-05-15T10:34:05;20.70;99.90
51327;DHT22;37412;52.836;6.362;2023-05-15T10:36:51;20.70;99.90
51327;DHT22;37412;52.836;6.362;2023-05-15T10:39:38;20.80;99.90
51327;DHT22;37412;52.836;6.362;2023-05-15T10:42:26;20.90;99.90
51327;DHT22;37412;52.836;6.362;2023-05-15T10:45:13;21.00;99.90
51327;DHT22;37412;52.836;6.362;2023-05-15T10:48:01;21.00;99.90
51327;DHT22;37412;52.836;6.362;2023-05-15T10:50:48;20.90;99.90
51327;DHT22;37412;52.836;6.362;2023-05-15T10:53:34;20.90;99.90
51327;DHT22;37412;52.836;6.362;2023-05-15T10:56:23;20.90;99.90
51327;DHT22;37412;52.836;6.362;2023-05-15T10:59:10;20.90;99.90
51327;DHT22;37412;52.836;6.362;2023-05-15T11:02:18;20.90;99.90
51327;DHT22;37412;52.836;6.362;2023-05-15T11:05:03;20.80;99.90
51327;DHT22;37412;52.836;6.362;2023-05-15T11:08:27;20.70;99.90
51327;DHT22;37412;52.836;6.362;2023-05-15T11:18:02;20.50;99.90
51327;DHT22;37412;52.836;6.362;2023-05-15T11:23:40;20.60;99.90
51327;DHT22;37412;52.836;6.362;2023-05-15T11:26:32;20.60;99.90
51327;DHT22;37412;52.836;6.362;2023-05-15T11:29:18;20.40;99.90
51327;DHT22;37412;52.836;6.362;2023-05-15T11:35:45;20.20;99.90
51327;DHT22;37412;52.836;6.362;2023-05-15T11:38:37;20.10;99.90
51327;DHT22;37412;52.836;6.362;2023-05-15T11:41:30;20.20;99.90
51327;DHT22;37412;52.836;6.362;2023-05-15T11:44:23;20.30;99.90
51327;DHT22;37412;52.836;6.362;2023-05-15T11:47:09;20.30;99.90
51327;DHT22;37412;52.836;6.362;2023-05-15T11:49:56;20.40;99.90
51327;DHT22;37412;52.836;6.362;2023-05-15T11:52:42;20.60;99.90
51327;DHT22;37412;52.836;6.362;2023-05-15T11:55:30;20.60;99.90
51327;DHT22;37412;52.836;6.362;2023-05-15T11:58:18;20.60;99.90
51327;DHT22;37412;52.836;6.362;2023-05-15T12:01:05;20.50;99.90
51327;DHT22;37412;52.836;6.362;2023-05-15T12:03:54;20.40;99.90
51327;DHT22;37412;52.836;6.362;2023-05-15T12:06:44;20.30;99.90
51327;DHT22;37412;52.836;6.362;2023-05-15T12:09:32;20.00;99.90
51327;DHT22;37412;52.836;6.362;2023-05-15T12:12:18;19.80;99.90
51327;DHT22;37412;52.836;6.362;2023-05-15T12:15:08;19.80;99.90
51327;DHT22;37412;52.836;6.362;2023-05-15T12:17:54;19.40;99.90
51327;DHT22;37412;52.836;6.362;2023-05-15T12:20:40;19.30;99.90
51327;DHT22;37412;52.836;6.362;2023-05-15T12:23:34;19.10;99.90
51327;DHT22;37412;52.836;6.362;2023-05-15T12:26:21;19.10;99.90
51327;DHT22;37412;52.836;6.362;2023-05-15T12:29:08;19.20;99.90
51327;DHT22;37412;52.836;6.362;2023-05-15T12:31:54;19.00;99.90
51327;DHT22;37412;52.836;6.362;2023-05-15T12:34:40;18.90;99.90
51327;DHT22;37412;52.836;6.362;2023-05-15T12:37:27;18.90;99.90
51327;DHT22;37412;52.836;6.362;2023-05-15T12:40:19;18.80;99.90
51327;DHT22;37412;52.836;6.362;2023-05-15T12:43:06;18.70;99.90
51327;DHT22;37412;52.836;6.362;2023-05-15T12:45:53;18.80;99.90
51327;DHT22;37412;52.836;6.362;2023-05-15T12:48:40;18.80;99.90
51327;DHT22;37412;52.836;6.362;2023-05-15T12:51:27;18.70;99.90
51327;DHT22;37412;52.836;6.362;2023-05-15T12:54:20;18.60;99.90
51327;DHT22;37412;52.836;6.362;2023-05-15T12:57:07;18.70;99.90
51327;DHT22;37412;52.836;6.362;2023-05-15T12:59:56;19.00;99.90
51327;DHT22;37412;52.836;6.362;2023-05-15T13:02:44;18.50;99.90
51327;DHT22;37412;52.836;6.362;2023-05-15T13:05:32;18.50;99.90
51327;DHT22;37412;52.836;6.362;2023-05-15T13:08:18;18.60;99.90
51327;DHT22;37412;52.836;6.362;2023-05-15T13:11:04;18.80;99.90
51327;DHT22;37412;52.836;6.362;2023-05-15T13:13:52;18.70;99.90
51327;DHT22;37412;52.836;6.362;2023-05-15T13:16:37;18.90;99.90
51327;DHT22;37412;52.836;6.362;2023-05-15T13:19:24;19.20;99.90
51327;DHT22;37412;52.836;6.362;2023-05-15T13:22:13;19.40;99.90
51327;DHT22;37412;52.836;6.362;2023-05-15T13:24:59;19.80;99.90
51327;DHT22;37412;52.836;6.362;2023-05-15T13:27:46;20.00;99.90
51327;DHT22;37412;52.836;6.362;2023-05-15T13:30:37;20.00;99.90
51327;DHT22;37412;52.836;6.362;2023-05-15T13:33:26;20.20;99.90
51327;DHT22;37412;52.836;6.362;2023-05-15T13:36:12;19.70;99.90
51327;DHT22;37412;52.836;6.362;2023-05-15T13:38:59;19.80;99.90
51327;DHT22;37412;52.836;6.362;2023-05-15T13:41:45;19.80;99.90
51327;DHT22;37412;52.836;6.362;2023-05-15T13:44:31;19.80;99.90
51327;DHT22;37412;52.836;6.362;2023-05-15T13:47:17;19.90;99.90
51327;DHT22;37412;52.836;6.362;2023-05-15T13:50:03;19.90;99.90
51327;DHT22;37412;52.836;6.362;2023-05-15T13:52:50;19.70;99.90
51327;DHT22;37412;52.836;6.362;2023-05-15T13:55:38;19.60;99.90
51327;DHT22;37412;52.836;6.362;2023-05-15T13:58:24;19.50;99.90
51327;DHT22;37412;52.836;6.362;2023-05-15T14:01:11;19.20;99.90
51327;DHT22;37412;52.836;6.362;2023-05-15T14:03:57;19.10;99.90
51327;DHT22;37412;52.836;6.362;2023-05-15T14:06:43;19.10;99.90
51327;DHT22;37412;52.836;6.362;2023-05-15T14:09:29;19.00;99.90
51327;DHT22;37412;52.836;6.362;2023-05-15T14:12:15;18.90;99.90
51327;DHT22;37412;52.836;6.362;2023-05-15T14:15:01;18.90;99.90
51327;DHT22;37412;52.836;6.362;2023-05-15T14:17:48;18.70;99.90
51327;DHT22;37412;52.836;6.362;2023-05-15T14:20:35;19.10;99.90
51327;DHT22;37412;52.836;6.362;2023-05-15T14:23:21;18.60;99.90
51327;DHT22;37412;52.836;6.362;2023-05-15T14:26:09;18.60;99.90
51327;DHT22;37412;52.836;6.362;2023-05-15T14:28:55;18.90;99.90
51327;DHT22;37412;52.836;6.362;2023-05-15T14:31:41;18.30;99.90
51327;DHT22;37412;52.836;6.362;2023-05-15T14:34:28;18.20;99.90
51327;DHT22;37412;52.836;6.362;2023-05-15T14:37:17;18.00;99.90
51327;DHT22;37412;52.836;6.362;2023-05-15T14:40:05;17.80;99.90
51327;DHT22;37412;52.836;6.362;2023-05-15T14:42:52;17.60;99.90
51327;DHT22;37412;52.836;6.362;2023-05-15T14:45:38;17.50;99.90
51327;DHT22;37412;52.836;6.362;2023-05-15T14:48:24;17.40;99.90
51327;DHT22;37412;52.836;6.362;2023-05-15T14:51:10;17.30;99.90
51327;DHT22;37412;52.836;6.362;2023-05-15T14:53:56;17.20;99.90
51327;DHT22;37412;52.836;6.362;2023-05-15T14:56:42;17.10;99.90
51327;DHT22;37412;52.836;6.362;2023-05-15T14:59:29;17.00;99.90
51327;DHT22;37412;52.836;6.362;2023-05-15T15:02:18;17.00;99.90
51327;DHT22;37412;52.836;6.362;2023-05-15T15:05:04;16.90;99.90
51327;DHT22;37412;52.836;6.362;2023-05-15T15:08:07;16.80;99.90
51327;DHT22;37412;52.836;6.362;2023-05-15T15:10:53;16.80;99.90
51327;DHT22;37412;52.836;6.362;2023-05-15T15:13:39;16.70;99.90
51327;DHT22;37412;52.836;6.362;2023-05-15T15:16:25;16.70;99.90
51327;DHT22;37412;52.836;6.362;2023-05-15T15:19:12;16.70;99.90
51327;DHT22;37412;52.836;6.362;2023-05-15T15:21:58;16.70;99.90
51327;DHT22;37412;52.836;6.362;2023-05-15T15:24:44;16.70;99.90
51327;DHT22;37412;52.836;6.362;2023-05-15T15:27:33;16.70;99.90
51327;DHT22;37412;52.836;6.362;2023-05-15T15:30:19;16.70;99.90
51327;DHT22;37412;52.836;6.362;2023-05-15T15:33:05;16.80;99.90
51327;DHT22;37412;52.836;6.362;2023-05-15T15:35:51;16.80;99.90
51327;DHT22;37412;52.836;6.362;2023-05-15T15:38:37;16.70;99.90
51327;DHT22;37412;52.836;6.362;2023-05-15T15:41:28;16.70;99.90
51327;DHT22;37412;52.836;6.362;2023-05-15T15:44:14;16.80;99.90
51327;DHT22;37412;52.836;6.362;2023-05-15T15:47:00;16.60;99.90
51327;DHT22;37412;52.836;6.362;2023-05-15T15:49:46;16.60;99.90
51327;DHT22;37412;52.836;6.362;2023-05-15T15:52:32;16.50;99.90
51327;DHT22;37412;52.836;6.362;2023-05-15T15:55:18;16.60;99.90
51327;DHT22;37412;52.836;6.362;2023-05-15T15:58:04;16.50;99.90
51327;DHT22;37412;52.836;6.362;2023-05-15T16:00:50;16.40;99.90
51327;DHT22;37412;52.836;6.362;2023-05-15T16:03:36;16.50;99.90
51327;DHT22;37412;52.836;6.362;2023-05-15T16:06:22;16.30;99.90
51327;DHT22;37412;52.836;6.362;2023-05-15T16:09:08;16.20;99.90
51327;DHT22;37412;52.836;6.362;2023-05-15T16:11:54;16.10;99.90
51327;DHT22;37412;52.836;6.362;2023-05-15T16:14:40;16.00;99.90
51327;DHT22;37412;52.836;6.362;2023-05-15T16:17:26;15.90;99.90
51327;DHT22;37412;52.836;6.362;2023-05-15T16:20:12;15.80;99.90
51327;DHT22;37412;52.836;6.362;2023-05-15T16:22:58;15.70;99.90
51327;DHT22;37412;52.836;6.362;2023-05-15T16:25:44;15.60;99.90
51327;DHT22;37412;52.836;6.362;2023-05-15T16:28:30;15.60;99.90
51327;DHT22;37412;52.836;6.362;2023-05-15T16:31:16;15.50;99.90
51327;DHT22;37412;52.836;6.362;2023-05-15T16:34:02;15.50;99.90
51327;DHT22;37412;52.836;6.362;2023-05-15T16:36:48;15.40;99.90
51327;DHT22;37412;52.836;6.362;2023-05-15T16:39:35;15.40;99.90
51327;DHT22;37412;52.836;6.362;2023-05-15T16:42:24;15.30;99.90
51327;DHT22;37412;52.836;6.362;2023-05-15T16:45:10;15.30;99.90
51327;DHT22;37412;52.836;6.362;2023-05-15T16:47:56;15.30;99.90
51327;DHT22;37412;52.836;6.362;2023-05-15T16:50:45;15.10;99.90
51327;DHT22;37412;52.836;6.362;2023-05-15T16:53:31;15.80;99.90
51327;DHT22;37412;52.836;6.362;2023-05-15T16:56:20;15.00;99.90
51327;DHT22;37412;52.836;6.362;2023-05-15T16:59:07;15.00;99.90
51327;DHT22;37412;52.836;6.362;2023-05-15T17:01:53;15.00;99.90
51327;DHT22;37412;52.836;6.362;2023-05-15T17:04:38;15.00;99.90
51327;DHT22;37412;52.836;6.362;2023-05-15T17:07:27;14.90;99.90
51327;DHT22;37412;52.836;6.362;2023-05-15T17:10:13;14.90;99.90
51327;DHT22;37412;52.836;6.362;2023-05-15T17:12:59;14.90;99.90
51327;DHT22;37412;52.836;6.362;2023-05-15T17:15:45;14.90;99.90
51327;DHT22;37412;52.836;6.362;2023-05-15T17:18:34;14.90;99.90
51327;DHT22;37412;52.836;6.362;2023-05-15T17:21:20;14.80;99.90
51327;DHT22;37412;52.836;6.362;2023-05-15T17:24:06;14.70;99.90
51327;DHT22;37412;52.836;6.362;2023-05-15T17:26:52;14.60;99.90
51327;DHT22;37412;52.836;6.362;2023-05-15T17:29:38;14.60;99.90
51327;DHT22;37412;52.836;6.362;2023-05-15T17:32:23;14.60;99.90
51327;DHT22;37412;52.836;6.362;2023-05-15T17:35:09;14.70;99.90
51327;DHT22;37412;52.836;6.362;2023-05-15T17:37:56;14.40;99.90
51327;DHT22;37412;52.836;6.362;2023-05-15T17:40:42;14.40;99.90
51327;DHT22;37412;52.836;6.362;2023-05-15T17:43:28;14.30;99.90
51327;DHT22;37412;52.836;6.362;2023-05-15T17:46:14;14.30;99.90
51327;DHT22;37412;52.836;6.362;2023-05-15T17:49:01;14.20;99.90
51327;DHT22;37412;52.836;6.362;2023-05-15T17:51:47;14.70;99.90
51327;DHT22;37412;52.836;6.362;2023-05-15T17:54:33;14.20;99.90